Terminal Aerodrome Forecast
Issued by NWS Tampa Bay Area, FL

Home | Current Version | Previous Version | Text Only | Print | Product List | Glossary Off
Versions: 1 2 3 4 5 6 7 8 9 10 11 12 13 14 15 16 17

069
FTUS42 KTBW 221315 AAA
TAFSRQ
TAF AMD
KSRQ 221315Z 2213/2312 22006KT P6SM VCTS FEW012 SCT025CB BKN050
      TEMPO 2213/2214 VRB15G20KT 2SM TSRA BKN025CB
     FM221500 21006KT P6SM VCTS SCT030CB BKN050 BKN120
     FM221900 23008KT P6SM VCTS SCT045CB BKN120
     FM230100 VRB04KT P6SM FEW030 SCT100 BKN250=

USA.gov is the U.S. government's official web portal to all federal, state and local government web resources and services.